Wendy — WDA2273 — position and weather

sailwx.info

Track history (hours):
 
Tides and Currents Weather Stations Pressure Air Temp Water Temp Dewpoint Dewpoint Depression Visibility Wind Speed Wind Dir Waves Ship Positions

Wendy

Owner: Moran Norfolk, Norfolk, VA. More information available from US FCC via Universal Licensing System.

Last reported at 2017-Oct-19 18:22 UTC. Time now 2017-Oct-20 12:47 UTC.
Position N 36°53' W 076°20'.

Length 26 m; draft 4.1 m.

Type: Tug. MMSI: 367457590.

Date/timePositionNaut miles runAvg speedWind from/ knotsBaromVisibWave heightAir tempDewpointWater temp
2017-Oct-19 18:22N 36°53' W 076°20'3 9.3
2017-Oct-19 18:00N 36°50' W 076°17'0 0.4
2017-Oct-19 17:06N 36°50' W 076°16'0 0.1
2017-Oct-19 17:00N 36°50' W 076°16'0 0.0
2017-Oct-19 15:25N 36°50' W 076°16'0 0.0
2017-Oct-19 14:59N 36°50' W 076°16'1 2.3
2017-Oct-19 14:30N 36°51' W 076°18'  
2017-Oct-10 14:42N 36°52' W 076°20'4 6.1
2017-Oct-10 13:58N 36°48' W 076°18'0 0.1
2017-Oct-10 13:30N 36°48' W 076°18'  
Track history (hours):
 
Tides and Currents Weather Stations Pressure Air Temp Water Temp Dewpoint Dewpoint Depression Visibility Wind Speed Wind Dir Waves Ship Positions

Wendy

Owner: Moran Norfolk, Norfolk, VA. More information available from US FCC via Universal Licensing System.

Last reported at 2017-Oct-19 18:22 UTC. Time now 2017-Oct-20 12:47 UTC.
Position N 36°53' W 076°20'.

Length 26 m; draft 4.1 m.

Type: Tug. MMSI: 367457590.

Date/timePositionNaut miles runAvg speedWind from/ knotsBaromVisibWave heightAir tempDewpointWater temp
2017-Oct-19 18:22N 36°53' W 076°20'3 9.3
2017-Oct-19 18:00N 36°50' W 076°17'0 0.4
2017-Oct-19 17:06N 36°50' W 076°16'0 0.1
2017-Oct-19 17:00N 36°50' W 076°16'0 0.0
2017-Oct-19 15:25N 36°50' W 076°16'0 0.0
2017-Oct-19 14:59N 36°50' W 076°16'1 2.3
2017-Oct-19 14:30N 36°51' W 076°18'  
2017-Oct-10 14:42N 36°52' W 076°20'4 6.1
2017-Oct-10 13:58N 36°48' W 076°18'0 0.1
2017-Oct-10 13:30N 36°48' W 076°18'  

Dump ship's entire track history